Clearfield, Pennsylvania
Current Conditions -  °F | °C
As of 1:54 AM on Monday 22 Dec 2014 (Local Time) from KFIG Reporting Station
Clear Clear  
Wind Chill: 19°   Ceiling: Unl
Heat Index: 19°   Visibility: 10mi
Dew Point: 16°   Wind: 0mph
Humidity: 88%   Direction: NA
Pressure: 30.23"   Gusts: NA
Location:  41.02°N, 78.44°W
Report Text: KFIG 220654Z AUTO 00000KT 10SM CLR M07/M09 A3023 RMK AO2 SLP258 I1000 T10721089
Loading
Personal Weather Stations






























Interactive Weather Map New forecast layout! Learn more

10-Day Weather Forecast

Advertisements
Track Severe Weather on mobile